Time;durP1;ratioP1;P1;durP2;ratioP2;P2;SDS_P1;SDS_P2;PMS_P1;PMS_P2;Temp;Humidity;BMP_temperature;BMP_pressure;BME280_temperature;BME280_humidity;BME280_pressure;Samples;Min_cycle;Max_cycle;Signal;HPM_P1;HPM_P2
2022/12/29 00:01:31;;;;;;;4.22;3.70;;;7.40;99.90;;;;;;5068829;28;20032;-60
2022/12/29 00:03:57;;;;;;;5.13;3.60;;;7.50;99.90;;;;;;5068983;28;20518;-59
2022/12/29 00:06:23;;;;;;;4.88;4.07;;;7.40;99.90;;;;;;5068714;28;20638;-60
2022/12/29 00:08:49;;;;;;;6.68;4.00;;;7.50;99.90;;;;;;5068788;28;20099;-60
2022/12/29 00:11:20;;;;;;;5.15;3.88;;;7.50;99.90;;;;;;5067460;28;20480;-60
2022/12/29 00:16:33;;;;;;;3.75;3.40;;;7.50;99.90;;;;;;5068446;28;20039;-60
2022/12/29 00:18:59;;;;;;;4.60;4.15;;;7.50;99.90;;;;;;5068427;28;20036;-60
2022/12/29 00:35:31;;;;;;;6.60;4.55;;;7.60;99.90;;;;;;5068358;28;20105;-60
2022/12/29 00:46:16;;;;;;;5.03;4.53;;;7.60;99.90;;;;;;5059687;28;20040;-59
2022/12/29 00:51:26;;;;;;;5.18;4.03;;;7.70;99.90;;;;;;5062988;28;20039;-60
2022/12/29 00:53:51;;;;;;;7.80;4.78;;;7.70;99.90;;;;;;5068267;28;20028;-60
2022/12/29 00:56:17;;;;;;;4.55;4.15;;;7.70;99.90;;;;;;5048118;28;20111;-60
2022/12/29 00:58:42;;;;;;;5.47;4.15;;;7.70;99.90;;;;;;5063287;28;20029;-58
2022/12/29 01:01:09;;;;;;;4.60;4.20;;;7.70;99.90;;;;;;5065071;28;20028;-60
2022/12/29 01:03:36;;;;;;;5.00;4.03;;;7.70;99.90;;;;;;5067846;28;20365;-59
2022/12/29 01:06:03;;;;;;;5.40;4.65;;;7.80;99.90;;;;;;5064249;28;20032;-60
2022/12/29 01:08:32;;;;;;;4.82;4.43;;;7.80;99.90;;;;;;5071499;28;20438;-59
2022/12/29 01:11:03;;;;;;;5.82;4.95;;;7.80;99.90;;;;;;5071639;28;20512;-58
2022/12/29 01:13:28;;;;;;;5.25;4.75;;;7.80;99.90;;;;;;5069679;28;20041;-59
2022/12/29 01:15:54;;;;;;;4.72;4.32;;;7.80;99.90;;;;;;5071731;28;20031;-59
2022/12/29 01:18:21;;;;;;;5.47;4.97;;;7.80;99.90;;;;;;5071666;28;20077;-60
2022/12/29 01:20:47;;;;;;;5.00;4.55;;;7.80;99.90;;;;;;5071199;28;20040;-60
2022/12/29 01:23:13;;;;;;;4.70;4.20;;;7.80;99.90;;;;;;5071761;28;20021;-61
2022/12/29 01:25:39;;;;;;;5.20;4.55;;;7.80;99.90;;;;;;5071150;28;20043;-61
2022/12/29 01:28:04;;;;;;;5.03;4.50;;;7.80;99.90;;;;;;5071749;28;20626;-60
2022/12/29 01:30:30;;;;;;;4.28;3.88;;;7.80;99.90;;;;;;5071262;28;20511;-58
2022/12/29 01:32:56;;;;;;;5.70;4.55;;;7.80;99.90;;;;;;5071274;28;20109;-61
2022/12/29 01:35:21;;;;;;;4.55;4.15;;;7.80;99.90;;;;;;5071024;28;20023;-60
2022/12/29 01:37:47;;;;;;;4.57;4.18;;;7.90;99.90;;;;;;5071191;28;20024;-61
2022/12/29 01:40:12;;;;;;;4.35;3.95;;;7.90;99.90;;;;;;5070686;28;20069;-61
2022/12/29 01:42:38;;;;;;;5.72;4.10;;;7.90;99.90;;;;;;5071156;28;20029;-61
2022/12/29 01:45:09;;;;;;;4.43;4.03;;;7.90;99.90;;;;;;5070890;28;20024;-60
2022/12/29 01:47:43;;;;;;;4.80;4.40;;;8.00;99.90;;;;;;5063599;28;20021;-61
2022/12/29 01:50:29;;;;;;;4.82;4.40;;;8.00;99.90;;;;;;5066901;28;20021;-61
2022/12/29 01:52:58;;;;;;;5.40;4.90;;;8.00;99.90;;;;;;5067380;28;20023;-60
2022/12/29 01:55:29;;;;;;;4.90;4.35;;;8.00;99.90;;;;;;5070424;28;20028;-61
2022/12/29 01:57:58;;;;;;;7.05;4.80;;;8.00;99.90;;;;;;5071204;28;20027;-59
2022/12/29 02:00:24;;;;;;;5.00;4.60;;;8.00;99.90;;;;;;5052731;28;20024;-60
2022/12/29 02:02:52;;;;;;;5.68;5.03;;;8.10;99.90;;;;;;5070609;28;20492;-60
2022/12/29 02:05:26;;;;;;;5.18;4.68;;;8.10;99.90;;;;;;5070266;28;20028;-60
2022/12/29 02:07:53;;;;;;;5.20;4.50;;;8.10;99.90;;;;;;5070993;28;20091;-59
2022/12/29 02:10:25;;;;;;;5.32;4.82;;;8.10;99.90;;;;;;5070238;28;20066;-61
2022/12/29 02:12:52;;;;;;;6.32;5.63;;;8.20;99.90;;;;;;5052884;28;20504;-60
2022/12/29 02:15:22;;;;;;;5.13;4.63;;;8.10;99.90;;;;;;5052087;28;20546;-60
2022/12/29 02:18:16;;;;;;;4.72;4.22;;;8.20;99.90;;;;;;5068668;28;20089;-58
2022/12/29 02:21:14;;;;;;;6.60;5.18;;;8.20;99.90;;;;;;5063830;28;20029;-60
2022/12/29 02:23:48;;;;;;;5.00;4.53;;;8.20;99.90;;;;;;5069755;28;20025;-59
2022/12/29 02:26:35;;;;;;;5.97;5.10;;;8.20;99.90;;;;;;5068555;28;20074;-60
2022/12/29 02:29:36;;;;;;;5.57;5.07;;;8.30;99.90;;;;;;5066167;28;20017;-59
2022/12/29 02:32:22;;;;;;;5.90;5.03;;;8.20;99.90;;;;;;5070309;28;20032;-61
2022/12/29 02:35:01;;;;;;;6.80;5.80;;;8.30;99.90;;;;;;5064485;28;20031;-61
2022/12/29 02:37:43;;;;;;;6.38;5.75;;;8.30;99.90;;;;;;5070323;28;20511;-61
2022/12/29 02:40:14;;;;;;;5.75;5.25;;;8.30;99.90;;;;;;5066734;28;20062;-60
2022/12/29 02:43:01;;;;;;;6.05;5.45;;;8.30;99.90;;;;;;5069380;28;20043;-61
2022/12/29 02:45:38;;;;;;;5.13;4.72;;;8.30;99.90;;;;;;5069914;28;20107;-61
2022/12/29 02:48:30;;;;;;;6.10;5.20;;;8.30;99.90;;;;;;5069380;28;20013;-61
2022/12/29 02:51:03;;;;;;;6.00;4.90;;;8.30;99.90;;;;;;5051466;28;20040;-60
2022/12/29 02:56:15;;;;;;;6.57;5.78;;;8.40;99.90;;;;;;5068801;28;20040;-60
2022/12/29 02:58:41;;;;;;;5.28;4.88;;;8.40;99.90;;;;;;5069559;28;20032;-60
2022/12/29 03:01:36;;;;;;;5.65;5.15;;;8.40;99.90;;;;;;5069012;28;20040;-61
2022/12/29 03:04:18;;;;;;;5.00;4.60;;;8.40;99.90;;;;;;5062278;28;20492;-61
2022/12/29 03:07:09;;;;;;;5.57;4.90;;;8.40;99.90;;;;;;5065757;28;20051;-60
2022/12/29 03:09:53;;;;;;;5.47;5.03;;;8.50;99.90;;;;;;5062066;28;20102;-61
2022/12/29 03:16:03;;;;;;;5.75;5.25;;;8.50;99.90;;;;;;5069014;28;20093;-61
2022/12/29 03:18:42;;;;;;;5.00;4.25;;;8.50;99.90;;;;;;5069409;28;20021;-61
2022/12/29 03:22:26;;;;;;;5.05;4.43;;;8.50;99.90;;;;;;5069309;28;20028;-60
2022/12/29 03:24:14;;;;;;;4.95;4.53;;;8.50;99.90;;;;;;5066512;28;20072;-60
2022/12/29 03:26:42;;;;;;;5.07;4.13;;;8.50;99.90;;;;;;5069255;28;20028;-60
2022/12/29 03:29:09;;;;;;;5.85;4.90;;;8.60;99.90;;;;;;5068148;28;20103;-61
2022/12/29 03:31:37;;;;;;;5.47;4.28;;;8.60;99.90;;;;;;5066163;28;20024;-60
2022/12/29 03:34:05;;;;;;;5.13;4.40;;;8.50;99.90;;;;;;5069235;28;20029;-61
2022/12/29 03:36:38;;;;;;;4.60;4.20;;;8.60;99.90;;;;;;5056951;28;20032;-60
2022/12/29 03:39:11;;;;;;;4.70;3.53;;;8.50;99.90;;;;;;5047638;28;20442;-61
2022/12/29 03:41:39;;;;;;;5.22;4.57;;;8.50;99.90;;;;;;5062300;28;20081;-60
2022/12/29 03:44:07;;;;;;;4.32;4.03;;;8.50;99.90;;;;;;5069122;28;20017;-60
2022/12/29 03:46:32;;;;;;;4.55;3.75;;;8.50;99.90;;;;;;5056929;28;20060;-60
2022/12/29 03:48:58;;;;;;;4.25;3.85;;;8.40;99.90;;;;;;5069416;28;20504;-60
2022/12/29 03:51:24;;;;;;;3.97;3.63;;;8.50;99.90;;;;;;5063227;28;20029;-60
2022/12/29 03:53:49;;;;;;;3.65;3.33;;;8.40;99.90;;;;;;5068750;28;20566;-60
2022/12/29 03:56:15;;;;;;;4.43;3.95;;;8.50;99.90;;;;;;5068372;28;20021;-60
2022/12/29 03:58:40;;;;;;;5.15;4.18;;;8.50;99.90;;;;;;5068570;28;20373;-60
2022/12/29 04:01:06;;;;;;;5.15;3.80;;;8.50;99.90;;;;;;5068408;28;20600;-60
2022/12/29 04:03:31;;;;;;;4.10;3.50;;;8.50;99.90;;;;;;5069261;28;20016;-60
2022/12/29 04:05:57;;;;;;;4.53;3.97;;;8.50;99.90;;;;;;5068473;28;20025;-60
2022/12/29 04:08:22;;;;;;;3.70;3.38;;;8.50;99.90;;;;;;5068426;28;20024;-60
2022/12/29 04:10:49;;;;;;;3.78;3.38;;;8.50;99.90;;;;;;5068811;28;20116;-60
2022/12/29 04:13:15;;;;;;;4.47;4.07;;;8.50;99.90;;;;;;5066779;28;20028;-61
2022/12/29 04:15:42;;;;;;;5.22;3.65;;;8.50;99.90;;;;;;5062007;28;20013;-60
2022/12/29 04:18:08;;;;;;;3.63;3.30;;;8.50;99.90;;;;;;5068384;28;20086;-61
2022/12/29 04:23:18;;;;;;;3.30;2.95;;;8.60;99.90;;;;;;5060319;28;20052;-62
2022/12/29 04:25:46;;;;;;;3.40;3.10;;;8.60;99.90;;;;;;5068230;28;20472;-60
2022/12/29 04:28:11;;;;;;;7.05;3.35;;;8.60;99.90;;;;;;5068914;28;20025;-61
2022/12/29 04:30:37;;;;;;;3.47;3.17;;;8.60;99.90;;;;;;5066145;28;20413;-60
2022/12/29 04:33:03;;;;;;;3.75;2.78;;;8.60;99.90;;;;;;5050311;28;20031;-60
2022/12/29 04:35:28;;;;;;;3.53;3.20;;;8.60;99.90;;;;;;5068509;28;20047;-60
2022/12/29 04:37:54;;;;;;;3.03;2.83;;;8.60;99.90;;;;;;5068189;28;20522;-60
2022/12/29 04:40:19;;;;;;;3.22;2.70;;;8.60;99.90;;;;;;5067946;28;20901;-61
2022/12/29 04:42:45;;;;;;;2.83;2.63;;;8.60;99.90;;;;;;5071212;28;20108;-60
2022/12/29 04:45:10;;;;;;;3.40;2.75;;;8.60;99.90;;;;;;5071706;28;20464;-60
2022/12/29 04:47:36;;;;;;;2.63;2.35;;;8.60;99.90;;;;;;5072403;28;20037;-61
2022/12/29 04:50:02;;;;;;;2.42;2.22;;;8.60;99.90;;;;;;5072097;28;20107;-61
2022/12/29 04:52:27;;;;;;;2.65;2.45;;;8.60;99.90;;;;;;5071844;28;20028;-60
2022/12/29 04:54:53;;;;;;;2.35;2.15;;;8.60;99.90;;;;;;5071584;28;20191;-59
2022/12/29 04:57:18;;;;;;;1.95;1.85;;;8.60;99.90;;;;;;5072174;28;20031;-60
2022/12/29 04:59:44;;;;;;;2.35;1.80;;;8.60;99.90;;;;;;5071911;28;20032;-60
2022/12/29 05:02:09;;;;;;;1.90;1.80;;;8.60;99.90;;;;;;5071953;28;20020;-61
2022/12/29 05:04:35;;;;;;;2.03;1.83;;;8.60;99.90;;;;;;5071719;28;20022;-58
2022/12/29 05:07:01;;;;;;;2.13;2.03;;;8.60;99.90;;;;;;5072010;28;20031;-60
2022/12/29 05:09:26;;;;;;;2.00;1.90;;;8.60;99.90;;;;;;5071734;28;20392;-59
2022/12/29 05:11:52;;;;;;;2.03;1.90;;;8.60;99.90;;;;;;5071823;28;20063;-60
2022/12/29 05:14:17;;;;;;;2.35;2.15;;;8.60;99.90;;;;;;5071601;28;20086;-61
2022/12/29 05:16:43;;;;;;;2.33;2.13;;;8.60;99.90;;;;;;5070494;28;20078;-61
2022/12/29 05:19:08;;;;;;;2.45;2.17;;;8.60;99.90;;;;;;5071937;28;20025;-61
2022/12/29 05:21:34;;;;;;;3.40;1.83;;;8.60;99.90;;;;;;5071123;28;20032;-62
2022/12/29 05:23:59;;;;;;;2.70;1.73;;;8.70;99.90;;;;;;5071505;28;20017;-62
2022/12/29 05:26:26;;;;;;;2.53;1.73;;;8.70;99.90;;;;;;5071572;28;20029;-60
2022/12/29 05:28:51;;;;;;;1.73;1.60;;;8.70;99.90;;;;;;5053632;28;20052;-60
2022/12/29 05:31:17;;;;;;;1.60;1.40;;;8.80;99.90;;;;;;5071364;28;20059;-61
2022/12/29 05:33:42;;;;;;;1.50;1.40;;;8.80;99.90;;;;;;5071636;28;20499;-61
2022/12/29 05:36:09;;;;;;;1.95;1.80;;;8.90;99.90;;;;;;5070901;28;20043;-59
2022/12/29 05:38:35;;;;;;;1.92;1.30;;;8.90;99.90;;;;;;5071100;28;20029;-61
2022/12/29 05:41:00;;;;;;;1.92;1.67;;;9.00;99.90;;;;;;5070855;28;20055;-60
2022/12/29 05:43:26;;;;;;;1.83;1.73;;;9.00;99.90;;;;;;5093815;22;20064;-55
2022/12/29 05:45:52;;;;;;;2.00;1.90;;;9.00;99.90;;;;;;5069891;28;20028;-56
2022/12/29 05:48:18;;;;;;;2.22;2.00;;;9.10;99.90;;;;;;5070851;28;20096;-58
2022/12/29 05:50:50;;;;;;;2.90;2.15;;;9.10;99.90;;;;;;5070727;28;20103;-58
2022/12/29 05:53:16;;;;;;;2.60;2.40;;;9.10;99.90;;;;;;5068091;28;20048;-58
2022/12/29 05:55:43;;;;;;;2.35;2.15;;;9.20;99.90;;;;;;5069782;28;20052;-57
2022/12/29 05:58:08;;;;;;;2.42;2.22;;;9.20;99.90;;;;;;5069136;28;20047;-58
2022/12/29 06:00:34;;;;;;;3.28;2.50;;;9.20;99.90;;;;;;5070707;28;20028;-53
2022/12/29 06:02:59;;;;;;;2.83;2.63;;;9.20;99.90;;;;;;5070484;28;20032;-59
2022/12/29 06:05:25;;;;;;;3.30;2.92;;;9.20;99.90;;;;;;5067760;28;20037;-53
2022/12/29 06:07:51;;;;;;;3.53;2.70;;;9.20;99.90;;;;;;5046410;28;20029;-54
2022/12/29 06:10:17;;;;;;;2.65;2.40;;;9.20;99.90;;;;;;5070615;28;20028;-58
2022/12/29 06:12:42;;;;;;;3.55;2.60;;;9.10;99.90;;;;;;5065351;28;20044;-54
2022/12/29 06:15:08;;;;;;;2.65;2.45;;;9.20;99.90;;;;;;5050169;28;20400;-59
2022/12/29 06:17:34;;;;;;;2.70;2.40;;;9.20;99.90;;;;;;5068056;28;20155;-57
2022/12/29 06:19:59;;;;;;;2.65;2.35;;;9.20;99.90;;;;;;5070087;28;20028;-58
2022/12/29 06:22:25;;;;;;;2.10;2.00;;;9.10;99.90;;;;;;5069997;28;20408;-57
2022/12/29 06:24:50;;;;;;;2.72;2.28;;;9.20;99.90;;;;;;5063879;28;20031;-59
2022/12/29 06:27:16;;;;;;;2.20;1.70;;;9.20;99.90;;;;;;5050143;28;20385;-58
2022/12/29 06:29:42;;;;;;;2.08;1.88;;;9.20;99.90;;;;;;5066818;28;20047;-57
2022/12/29 06:32:09;;;;;;;1.80;1.70;;;9.20;99.90;;;;;;5069987;28;20028;-55
2022/12/29 06:34:35;;;;;;;1.98;1.77;;;9.20;99.90;;;;;;5065729;28;20197;-59
2022/12/29 06:37:01;;;;;;;2.40;2.00;;;9.20;99.90;;;;;;5059106;28;20111;-58
2022/12/29 06:39:27;;;;;;;1.92;1.70;;;9.20;99.90;;;;;;5066337;28;20128;-57
2022/12/29 06:41:53;;;;;;;1.75;1.65;;;9.20;99.90;;;;;;5064031;28;20041;-58
2022/12/29 06:44:20;;;;;;;2.25;1.63;;;9.10;99.90;;;;;;5062211;28;21753;-58
2022/12/29 06:46:46;;;;;;;3.05;1.92;;;9.10;99.90;;;;;;5069472;28;20565;-58
2022/12/29 06:49:11;;;;;;;1.80;1.70;;;9.20;99.90;;;;;;5069046;28;20029;-57
2022/12/29 06:51:37;;;;;;;2.03;1.80;;;9.20;99.90;;;;;;5069532;28;20054;-58
2022/12/29 06:54:03;;;;;;;1.70;1.60;;;9.20;99.90;;;;;;5069262;28;20063;-59
2022/12/29 06:56:28;;;;;;;1.90;1.50;;;9.20;99.90;;;;;;5068973;28;20045;-58
2022/12/29 06:58:54;;;;;;;2.05;1.83;;;9.20;99.90;;;;;;5069199;28;20043;-57
2022/12/29 07:01:19;;;;;;;1.65;1.55;;;9.20;99.90;;;;;;5069884;28;20032;-58
2022/12/29 07:03:45;;;;;;;2.75;2.00;;;9.20;99.90;;;;;;5065299;28;20016;-57
2022/12/29 07:06:10;;;;;;;1.60;1.50;;;9.20;99.90;;;;;;5068562;28;20549;-58
2022/12/29 07:08:36;;;;;;;1.88;1.77;;;9.20;99.90;;;;;;5069807;28;20159;-57
2022/12/29 07:11:01;;;;;;;1.92;1.73;;;9.10;99.90;;;;;;5069857;28;20029;-56
2022/12/29 07:13:27;;;;;;;1.70;1.60;;;9.10;99.90;;;;;;5068197;28;20427;-56
2022/12/29 07:15:53;;;;;;;1.88;1.77;;;9.10;99.90;;;;;;5069337;28;20086;-57
2022/12/29 07:18:18;;;;;;;1.85;1.75;;;9.00;99.90;;;;;;5068633;28;20503;-57
2022/12/29 07:20:44;;;;;;;2.00;1.73;;;9.10;99.90;;;;;;5063195;28;20033;-59
2022/12/29 07:23:10;;;;;;;2.55;1.73;;;9.00;99.90;;;;;;5048407;28;20032;-58
2022/12/29 07:25:36;;;;;;;1.45;1.35;;;9.00;99.90;;;;;;5049935;28;20500;-58
2022/12/29 07:28:02;;;;;;;2.15;1.85;;;8.90;99.90;;;;;;5069306;28;20025;-59
2022/12/29 07:30:28;;;;;;;1.70;1.60;;;8.90;99.90;;;;;;5068742;28;20032;-59
2022/12/29 07:32:53;;;;;;;6.30;5.25;;;8.90;99.90;;;;;;5069424;28;20094;-59
2022/12/29 07:35:19;;;;;;;11.32;8.60;;;8.90;99.90;;;;;;5067750;28;20032;-57
2022/12/29 07:37:45;;;;;;;38.53;24.88;;;8.90;99.90;;;;;;5069645;28;20024;-57
2022/12/29 07:40:11;;;;;;;10.32;8.15;;;8.90;99.90;;;;;;5069442;28;20032;-59
2022/12/29 07:42:36;;;;;;;15.18;7.57;;;9.00;99.90;;;;;;5068677;28;20059;-57
2022/12/29 07:45:02;;;;;;;14.85;9.80;;;8.90;99.90;;;;;;5068908;28;20705;-57
2022/12/29 07:47:28;;;;;;;10.48;8.95;;;9.00;99.90;;;;;;5067918;28;20438;-57
2022/12/29 07:49:53;;;;;;;5.07;4.28;;;8.90;99.90;;;;;;5069068;28;20027;-57
2022/12/29 07:52:19;;;;;;;5.90;3.20;;;9.00;99.90;;;;;;5062635;28;20409;-56
2022/12/29 07:54:45;;;;;;;2.58;2.30;;;9.00;99.90;;;;;;5068705;28;20024;-59
2022/12/29 07:57:10;;;;;;;2.30;2.10;;;9.00;99.90;;;;;;5062688;28;20551;-57
2022/12/29 07:59:36;;;;;;;3.33;2.33;;;9.00;99.90;;;;;;5051189;28;20049;-58
2022/12/29 08:02:01;;;;;;;3.00;2.00;;;8.90;99.90;;;;;;5068676;28;20071;-56
2022/12/29 08:04:27;;;;;;;2.30;1.55;;;8.90;99.90;;;;;;5063749;28;20032;-55
2022/12/29 08:06:53;;;;;;;2.53;1.77;;;8.90;99.90;;;;;;5068843;28;20031;-57
2022/12/29 08:09:18;;;;;;;3.28;1.88;;;8.90;99.90;;;;;;5068518;28;20031;-56
2022/12/29 08:11:44;;;;;;;5.30;2.22;;;8.90;99.90;;;;;;5058764;28;20463;-57
2022/12/29 08:14:10;;;;;;;5.97;2.90;;;8.90;99.90;;;;;;5068777;28;20056;-58
2022/12/29 08:16:36;;;;;;;4.03;2.30;;;9.00;99.90;;;;;;5071131;28;20025;-56
2022/12/29 08:19:03;;;;;;;6.70;4.32;;;8.90;99.90;;;;;;5055565;28;20029;-58
2022/12/29 08:21:28;;;;;;;10.98;6.75;;;8.90;99.90;;;;;;5072540;28;20510;-55
2022/12/29 08:23:54;;;;;;;6.57;4.05;;;8.90;99.90;;;;;;5073017;28;20104;-57
2022/12/29 08:26:20;;;;;;;2.75;2.45;;;8.90;99.90;;;;;;5054897;28;20603;-58
2022/12/29 08:28:45;;;;;;;2.50;2.10;;;8.90;99.90;;;;;;5072616;28;20081;-58
2022/12/29 08:31:11;;;;;;;1.95;1.75;;;8.90;99.90;;;;;;5072740;28;20012;-56
2022/12/29 08:33:36;;;;;;;1.88;1.67;;;8.90;99.90;;;;;;5072143;28;20021;-59
2022/12/29 08:36:05;;;;;;;1.67;1.42;;;8.90;99.90;;;;;;5071542;28;20020;-55
2022/12/29 08:38:30;;;;;;;0.93;0.90;;;8.90;99.90;;;;;;5064436;28;20447;-54
2022/12/29 08:40:57;;;;;;;1.60;1.50;;;9.00;99.90;;;;;;5070105;28;20116;-56
2022/12/29 08:43:23;;;;;;;2.75;1.35;;;9.00;99.90;;;;;;5068928;28;20119;-58
2022/12/29 08:45:49;;;;;;;1.95;1.80;;;9.00;99.90;;;;;;5071744;28;20159;-57
2022/12/29 08:48:18;;;;;;;3.38;2.03;;;9.10;99.90;;;;;;5071799;28;20032;-56
2022/12/29 08:50:44;;;;;;;2.30;2.10;;;9.00;99.90;;;;;;5071705;28;20052;-55
2022/12/29 08:53:09;;;;;;;2.83;2.40;;;9.00;99.90;;;;;;5072094;28;20480;-58
2022/12/29 08:55:35;;;;;;;4.28;2.15;;;9.10;99.90;;;;;;5072117;28;20025;-55
2022/12/29 08:58:01;;;;;;;5.03;2.97;;;9.10;99.90;;;;;;5054662;28;20396;-57
2022/12/29 09:00:26;;;;;;;5.15;3.50;;;9.10;99.90;;;;;;5072696;28;20028;-54
2022/12/29 09:02:52;;;;;;;4.47;3.22;;;9.10;99.90;;;;;;5053936;28;20407;-54
2022/12/29 09:05:17;;;;;;;3.17;2.83;;;9.10;99.90;;;;;;5071566;28;20028;-55
2022/12/29 09:07:43;;;;;;;3.33;3.03;;;9.10;99.90;;;;;;5071720;28;20036;-56
2022/12/29 09:10:09;;;;;;;4.60;3.38;;;9.10;99.90;;;;;;5068369;28;20511;-55
2022/12/29 09:12:34;;;;;;;4.88;3.55;;;9.20;99.90;;;;;;5072132;28;20032;-55
2022/12/29 09:15:00;;;;;;;6.50;4.57;;;9.20;99.90;;;;;;5071476;28;20056;-54
2022/12/29 09:17:40;;;;;;;7.78;5.03;;;9.20;99.90;;;;;;5067688;28;20045;-58
2022/12/29 09:20:06;;;;;;;7.30;4.20;;;9.20;99.90;;;;;;5063812;28;20031;-54
2022/12/29 09:22:32;;;;;;;7.10;3.97;;;9.20;99.90;;;;;;5071646;28;20476;-57
2022/12/29 09:24:57;;;;;;;6.00;3.35;;;9.20;99.90;;;;;;5071220;28;20054;-58
2022/12/29 09:27:23;;;;;;;6.75;3.90;;;9.30;99.90;;;;;;5070452;28;20089;-58
2022/12/29 09:29:48;;;;;;;7.18;3.10;;;9.20;99.90;;;;;;5053491;28;20484;-58
2022/12/29 09:32:14;;;;;;;7.97;4.25;;;9.30;99.90;;;;;;5053527;28;20056;-57
2022/12/29 09:34:39;;;;;;;5.82;3.95;;;9.30;99.90;;;;;;5053031;28;20032;-59
2022/12/29 09:37:05;;;;;;;9.88;3.65;;;9.30;99.90;;;;;;5071369;28;20059;-56
2022/12/29 09:39:31;;;;;;;3.80;1.65;;;9.40;99.90;;;;;;5070776;28;20027;-56
2022/12/29 09:42:08;;;;;;;4.20;1.45;;;9.40;99.90;;;;;;5070692;28;20054;-54
2022/12/29 09:44:47;;;;;;;1.88;0.88;;;9.40;99.90;;;;;;5069619;28;20087;-57
2022/12/29 09:47:15;;;;;;;1.25;0.90;;;9.50;99.90;;;;;;5069333;28;20561;-58
2022/12/29 09:50:04;;;;;;;2.53;1.10;;;9.50;99.90;;;;;;5071362;28;20576;-56
2022/12/29 09:52:34;;;;;;;2.35;0.80;;;9.60;99.90;;;;;;5071061;28;20083;-57
2022/12/29 09:55:00;;;;;;;1.98;1.13;;;9.60;99.90;;;;;;5067021;28;20071;-56
2022/12/29 09:57:32;;;;;;;2.58;0.98;;;9.60;99.90;;;;;;5064252;28;20067;-58
2022/12/29 10:00:21;;;;;;;2.72;1.10;;;9.60;99.90;;;;;;5070777;28;20146;-59
2022/12/29 10:02:58;;;;;;;2.00;1.15;;;9.60;99.90;;;;;;5065442;28;20035;-60
2022/12/29 10:05:47;;;;;;;2.72;1.27;;;9.60;99.90;;;;;;5052420;28;20522;-58
2022/12/29 10:08:34;;;;;;;3.33;1.05;;;9.60;99.90;;;;;;5070925;28;20047;-56
2022/12/29 10:11:22;;;;;;;1.75;1.20;;;9.60;99.90;;;;;;5067474;28;20025;-55
2022/12/29 10:14:00;;;;;;;3.67;2.10;;;9.50;99.90;;;;;;5060370;28;20034;-57
2022/12/29 10:16:50;;;;;;;7.65;1.75;;;9.60;99.90;;;;;;5070651;28;20066;-57
2022/12/29 10:19:52;;;;;;;6.35;1.73;;;9.60;99.90;;;;;;5061687;28;20025;-57
2022/12/29 10:22:32;;;;;;;3.90;1.23;;;9.50;99.90;;;;;;5068939;28;20378;-56
2022/12/29 10:25:02;;;;;;;3.17;1.38;;;9.50;99.90;;;;;;5069972;28;20059;-55
2022/12/29 10:27:33;;;;;;;3.78;1.15;;;9.60;99.90;;;;;;5070258;28;20021;-58
2022/12/29 10:30:01;;;;;;;5.10;1.25;;;9.70;99.90;;;;;;5070506;28;20361;-56
2022/12/29 10:32:39;;;;;;;6.40;2.70;;;9.70;99.90;;;;;;5067737;28;20115;-58
2022/12/29 10:35:33;;;;;;;3.95;1.85;;;9.70;99.90;;;;;;5070081;28;20075;-56
2022/12/29 10:38:04;;;;;;;3.22;1.58;;;9.80;99.90;;;;;;5064030;28;20040;-56
2022/12/29 10:40:40;;;;;;;6.28;2.10;;;9.80;99.90;;;;;;5069881;28;20020;-56
2022/12/29 10:43:29;;;;;;;6.37;1.70;;;9.70;99.90;;;;;;5048555;28;20067;-55
2022/12/29 10:46:02;;;;;;;3.80;1.48;;;9.80;99.90;;;;;;5069127;28;20066;-57
2022/12/29 10:48:34;;;;;;;5.68;1.50;;;9.70;99.90;;;;;;5070073;28;20028;-57
2022/12/29 10:51:03;;;;;;;2.50;1.00;;;9.80;99.90;;;;;;5069954;28;20029;-57
2022/12/29 10:53:43;;;;;;;6.95;1.98;;;9.80;99.90;;;;;;5069926;28;20036;-56
2022/12/29 10:56:38;;;;;;;3.60;1.40;;;9.90;99.90;;;;;;5069154;28;20070;-55
2022/12/29 10:59:19;;;;;;;3.78;1.15;;;9.90;99.90;;;;;;5070065;28;20025;-56
2022/12/29 11:02:20;;;;;;;2.58;1.30;;;10.00;99.90;;;;;;5045735;28;20036;-55
2022/12/29 11:04:54;;;;;;;4.07;1.23;;;10.00;99.90;;;;;;5035748;28;20036;-56
2022/12/29 11:07:21;;;;;;;5.88;1.58;;;10.10;99.90;;;;;;5069382;28;20025;-57
2022/12/29 11:09:47;;;;;;;3.72;1.45;;;10.10;99.90;;;;;;5069569;28;20370;-57
2022/12/29 11:12:20;;;;;;;10.48;1.95;;;10.20;99.90;;;;;;5056364;28;20131;-56
2022/12/29 11:14:46;;;;;;;5.53;1.55;;;10.20;99.90;;;;;;5069339;28;20397;-58
2022/12/29 11:17:16;;;;;;;7.47;1.35;;;10.20;99.90;;;;;;5065614;28;20036;-56
2022/12/29 11:19:41;;;;;;;4.53;0.80;;;10.20;99.90;;;;;;5069328;28;20048;-57
2022/12/29 11:22:28;;;;;;;3.97;1.88;;;10.20;99.90;;;;;;5060502;28;20532;-57
2022/12/29 11:25:04;;;;;;;4.28;0.98;;;10.20;99.90;;;;;;5067654;28;20245;-55
2022/12/29 11:27:29;;;;;;;;;;;10.10;99.90;;;;;;5068097;28;20028;-53
2022/12/29 11:29:55;;;;;;;3.07;1.00;;;10.00;99.90;;;;;;5069956;28;19904;-57
2022/12/29 11:32:24;;;;;;;1.52;0.70;;;10.00;99.90;;;;;;5051505;28;20484;-57
2022/12/29 11:34:50;;;;;;;3.15;1.05;;;10.10;99.90;;;;;;5069496;28;20504;-58
2022/12/29 11:37:26;;;;;;;2.88;1.52;;;10.10;99.90;;;;;;5050882;28;20119;-57
2022/12/29 11:40:07;;;;;;;4.38;1.38;;;10.10;99.90;;;;;;5064201;28;20031;-54
2022/12/29 11:45:15;;;;;;;0.93;0.63;;;10.00;99.90;;;;;;5065572;28;20093;-51
2022/12/29 11:47:44;;;;;;;6.30;2.00;;;10.00;99.90;;;;;;5065095;28;20032;-52
2022/12/29 11:50:21;;;;;;;4.13;1.08;;;10.00;99.90;;;;;;5068872;28;20045;-50
2022/12/29 11:52:50;;;;;;;3.17;0.57;;;10.00;99.90;;;;;;5069030;28;20369;-52
2022/12/29 11:55:24;;;;;;;3.95;1.25;;;10.00;99.90;;;;;;5067201;28;20062;-51
2022/12/29 11:57:52;;;;;;;2.40;0.70;;;10.00;99.90;;;;;;5064693;28;20024;-51
2022/12/29 12:00:20;;;;;;;2.78;0.60;;;10.00;99.90;;;;;;5067285;28;20101;-51
2022/12/29 12:03:01;;;;;;;4.30;1.15;;;10.00;99.90;;;;;;5064116;28;20017;-50
2022/12/29 12:05:46;;;;;;;4.97;1.15;;;9.90;99.90;;;;;;5066773;28;20392;-52
2022/12/29 12:08:17;;;;;;;8.82;1.52;;;9.90;99.90;;;;;;5068986;28;20020;-51
2022/12/29 12:10:51;;;;;;;1.98;0.77;;;9.90;99.90;;;;;;5047682;28;20066;-50
2022/12/29 12:13:26;;;;;;;4.22;0.77;;;9.90;99.90;;;;;;5068148;28;20523;-51
2022/12/29 12:16:12;;;;;;;3.33;0.93;;;9.90;99.90;;;;;;5064777;28;20035;-51
2022/12/29 12:18:47;;;;;;;;;;;9.80;99.90;;;;;;5068790;28;20047;-50
2022/12/29 12:21:15;;;;;;;1.02;0.70;;;9.80;99.90;;;;;;5066819;28;19919;-51
2022/12/29 12:23:53;;;;;;;1.80;0.55;;;9.80;99.90;;;;;;5066281;28;20052;-51
2022/12/29 12:26:21;;;;;;;3.72;0.95;;;9.80;99.90;;;;;;5064794;28;20114;-50
2022/12/29 12:29:04;;;;;;;6.50;1.08;;;9.70;99.90;;;;;;5057148;28;20028;-50
2022/12/29 12:31:49;;;;;;;4.97;1.17;;;9.80;99.90;;;;;;5054674;28;20078;-51
2022/12/29 12:34:24;;;;;;;4.15;1.23;;;9.80;99.90;;;;;;5051520;28;20603;-50
2022/12/29 12:37:12;;;;;;;4.43;1.05;;;9.80;99.90;;;;;;5057037;28;20033;-51
2022/12/29 12:40:02;;;;;;;7.45;1.10;;;9.70;99.90;;;;;;5028568;28;20060;-50
2022/12/29 12:42:48;;;;;;;3.33;1.30;;;9.70;99.90;;;;;;5058223;28;20035;-53
2022/12/29 12:45:45;;;;;;;7.93;1.52;;;9.70;99.90;;;;;;5051543;28;20033;-52
2022/12/29 12:48:28;;;;;;;3.10;1.17;;;9.70;99.90;;;;;;5047483;28;20078;-51
2022/12/29 12:51:03;;;;;;;3.97;1.10;;;9.70;99.90;;;;;;5049244;28;20055;-50
2022/12/29 12:53:41;;;;;;;3.85;1.10;;;9.70;99.90;;;;;;5061574;28;20036;-53
2022/12/29 12:56:23;;;;;;;5.47;1.25;;;9.70;99.90;;;;;;5057669;28;20032;-53
2022/12/29 12:59:17;;;;;;;4.00;1.38;;;9.70;99.90;;;;;;5061322;28;20042;-54
2022/12/29 13:02:08;;;;;;;4.22;1.30;;;9.60;99.90;;;;;;5056034;28;20036;-54
2022/12/29 13:04:58;;;;;;;4.55;0.93;;;9.60;99.90;;;;;;5054443;28;20111;-57
2022/12/29 13:07:32;;;;;;;3.85;0.93;;;9.60;99.90;;;;;;5054577;28;20419;-51
2022/12/29 13:10:18;;;;;;;7.30;1.10;;;9.60;99.90;;;;;;5056805;28;20025;-52
2022/12/29 13:12:56;;;;;;;3.97;1.70;;;9.60;99.90;;;;;;5059154;28;20066;-54
2022/12/29 13:16:06;;;;;;;6.90;1.70;;;9.60;99.90;;;;;;5067081;28;20497;-53
2022/12/29 13:18:48;;;;;;;5.35;1.10;;;9.60;99.90;;;;;;5041039;28;20045;-55
2022/12/29 13:21:39;;;;;;;4.65;1.02;;;9.50;99.90;;;;;;5067381;28;20024;-51
2022/12/29 13:24:20;;;;;;;5.40;1.08;;;9.50;99.90;;;;;;5057674;28;20021;-54
2022/12/29 13:26:52;;;;;;;6.93;1.27;;;9.50;99.90;;;;;;5067236;28;20078;-54
2022/12/29 13:29:56;;;;;;;4.10;1.15;;;9.60;99.90;;;;;;5066717;28;20024;-50
2022/12/29 13:32:32;;;;;;;7.55;1.75;;;9.50;99.90;;;;;;5029407;28;20064;-54
2022/12/29 13:35:26;;;;;;;4.07;0.90;;;9.60;99.90;;;;;;5065773;28;20024;-53
2022/12/29 13:38:04;;;;;;;3.20;1.13;;;9.50;99.90;;;;;;5062549;28;20031;-52
2022/12/29 13:40:34;;;;;;;4.38;1.77;;;9.40;99.90;;;;;;5059037;28;20067;-53
2022/12/29 13:43:01;;;;;;;2.33;0.85;;;9.40;99.90;;;;;;5069172;28;20032;-55
2022/12/29 13:45:31;;;;;;;6.13;1.40;;;9.30;99.90;;;;;;5063133;28;20051;-53
2022/12/29 13:47:59;;;;;;;4.22;1.35;;;9.20;99.90;;;;;;5063191;28;20111;-52
2022/12/29 13:50:28;;;;;;;4.22;1.10;;;9.10;99.90;;;;;;5067752;28;20036;-52
2022/12/29 13:53:19;;;;;;;4.80;1.30;;;9.10;99.90;;;;;;5064087;28;20024;-54
2022/12/29 13:55:48;;;;;;;3.42;1.38;;;9.00;99.90;;;;;;5066969;28;20497;-53